Time;durP1;ratioP1;P1;durP2;ratioP2;P2;SDS_P1;SDS_P2;PMS_P1;PMS_P2;Temp;Humidity;BMP_temperature;BMP_pressure;BME280_temperature;BME280_humidity;BME280_pressure;Samples;Min_cycle;Max_cycle;Signal;HPM_P1;HPM_P2
2022/01/07 00:00:30;;;;;;;0.30;0.30;;;-0.70;99.90;;;;;;5116660;28;20450;-85
2022/01/07 00:03:00;;;;;;;0.30;0.30;;;-0.70;99.90;;;;;;5116685;28;20471;-85
2022/01/07 00:05:27;;;;;;;0.30;0.30;;;-0.70;99.90;;;;;;5116236;28;20431;-85
2022/01/07 00:07:54;;;;;;;0.50;0.50;;;-0.80;99.90;;;;;;5117313;27;20458;-85
2022/01/07 00:10:22;;;;;;;0.40;0.40;;;-0.80;99.90;;;;;;5117735;27;20450;-85
2022/01/07 00:12:50;;;;;;;0.30;0.30;;;-0.80;99.90;;;;;;5116234;28;20459;-85
2022/01/07 00:15:18;;;;;;;0.30;0.20;;;-0.80;99.90;;;;;;5116259;28;20934;-85
2022/01/07 00:17:46;;;;;;;0.97;0.73;;;-0.80;99.90;;;;;;5116416;28;20419;-85
2022/01/07 00:20:15;;;;;;;1.13;0.60;;;-0.80;99.90;;;;;;5116316;28;20443;-85
2022/01/07 00:22:43;;;;;;;0.30;0.30;;;-0.80;99.90;;;;;;5116261;28;20859;-86
2022/01/07 00:25:11;;;;;;;0.50;0.50;;;-0.80;99.90;;;;;;5116150;28;20443;-86
2022/01/07 00:27:38;;;;;;;0.30;0.30;;;-0.90;99.90;;;;;;5116094;28;20479;-86
2022/01/07 00:30:08;;;;;;;0.30;0.30;;;-0.90;99.90;;;;;;5115151;28;20416;-86
2022/01/07 00:32:37;;;;;;;2.40;2.20;;;-1.00;99.90;;;;;;5116536;28;20471;-86
2022/01/07 00:35:05;;;;;;;0.30;0.30;;;-1.00;99.90;;;;;;5116171;28;20424;-86
2022/01/07 00:37:31;;;;;;;0.40;0.40;;;-1.10;99.90;;;;;;5115888;28;20445;-86
2022/01/07 00:39:58;;;;;;;0.60;0.60;;;-1.10;99.90;;;;;;5116507;28;20443;-86
2022/01/07 00:42:25;;;;;;;0.30;0.20;;;-1.20;99.90;;;;;;5115753;28;20417;-86
2022/01/07 00:44:52;;;;;;;0.30;0.30;;;-1.20;99.90;;;;;;5115746;28;20447;-86
2022/01/07 00:47:18;;;;;;;0.30;0.20;;;-1.20;99.90;;;;;;5115583;28;20482;-86
2022/01/07 00:49:47;;;;;;;0.30;0.30;;;-1.20;99.90;;;;;;5115654;28;20447;-86
2022/01/07 00:52:13;;;;;;;0.40;0.40;;;-1.20;99.90;;;;;;5115465;28;20938;-86
2022/01/07 00:54:40;;;;;;;0.80;0.80;;;-1.20;99.90;;;;;;5115408;28;20935;-86
2022/01/07 00:57:07;;;;;;;0.30;0.30;;;-1.30;99.90;;;;;;5115580;28;20438;-86
2022/01/07 00:59:34;;;;;;;0.30;0.30;;;-1.30;99.90;;;;;;5115549;28;20458;-86
2022/01/07 01:02:01;;;;;;;0.80;0.60;;;-1.30;99.90;;;;;;5115564;28;20417;-86
2022/01/07 01:04:27;;;;;;;0.30;0.30;;;-1.40;99.90;;;;;;5115486;28;20471;-86
2022/01/07 01:06:56;;;;;;;0.60;0.60;;;-1.40;99.90;;;;;;5115148;28;20487;-86
2022/01/07 01:09:22;;;;;;;0.40;0.40;;;-1.40;99.90;;;;;;5115227;28;20455;-86
2022/01/07 01:11:49;;;;;;;0.30;0.30;;;-1.50;99.90;;;;;;5115199;28;20447;-86
2022/01/07 01:14:16;;;;;;;0.40;0.40;;;-1.50;99.90;;;;;;5115186;28;20796;-86
2022/01/07 01:16:44;;;;;;;0.43;0.43;;;-1.50;99.90;;;;;;5114778;28;20537;-86
2022/01/07 01:19:11;;;;;;;0.40;0.40;;;-1.40;99.90;;;;;;5115233;28;20518;-86
2022/01/07 01:21:38;;;;;;;0.30;0.30;;;-1.40;99.90;;;;;;5115194;28;20439;-86
2022/01/07 01:24:06;;;;;;;0.30;0.30;;;-1.40;99.90;;;;;;5115474;28;20475;-86
2022/01/07 01:26:33;;;;;;;0.30;0.30;;;-1.30;99.90;;;;;;5115021;28;20442;-86
2022/01/07 01:29:00;;;;;;;0.30;0.30;;;-1.30;99.90;;;;;;5114936;28;20450;-86
2022/01/07 01:31:27;;;;;;;0.40;0.40;;;-1.30;99.90;;;;;;5114953;28;20425;-86
2022/01/07 01:33:53;;;;;;;0.30;0.30;;;-1.30;99.90;;;;;;5114663;28;20463;-86
2022/01/07 01:36:20;;;;;;;0.40;0.40;;;-1.30;99.90;;;;;;5114767;28;20826;-86
2022/01/07 01:38:47;;;;;;;0.50;0.50;;;-1.30;99.90;;;;;;5114337;28;20436;-86
2022/01/07 01:41:15;;;;;;;0.40;0.33;;;-1.30;99.90;;;;;;5114130;28;20409;-85
2022/01/07 01:43:42;;;;;;;0.50;0.50;;;-1.30;99.90;;;;;;5114271;28;20489;-86
2022/01/07 01:46:09;;;;;;;0.30;0.30;;;-1.30;99.90;;;;;;5114674;28;20440;-86
2022/01/07 01:48:35;;;;;;;0.30;0.30;;;-1.40;99.90;;;;;;5114635;28;20466;-86
2022/01/07 01:51:04;;;;;;;0.30;0.30;;;-1.30;99.90;;;;;;5114908;28;20791;-86
2022/01/07 01:53:31;;;;;;;0.40;0.40;;;-1.40;99.90;;;;;;5114216;28;20466;-86
2022/01/07 01:55:58;;;;;;;0.53;0.53;;;-1.30;99.90;;;;;;5114580;28;20430;-86
2022/01/07 01:58:26;;;;;;;0.30;0.30;;;-1.30;99.90;;;;;;5114486;28;20764;-87
2022/01/07 02:00:53;;;;;;;0.43;0.43;;;-1.30;99.90;;;;;;5114405;28;20458;-86
2022/01/07 02:03:20;;;;;;;0.30;0.30;;;-1.30;99.90;;;;;;5114363;28;20463;-87
2022/01/07 02:05:47;;;;;;;0.30;0.30;;;-1.30;99.90;;;;;;5114410;28;20413;-87
2022/01/07 02:08:14;;;;;;;0.40;0.40;;;-1.30;99.90;;;;;;5114372;28;20453;-87
2022/01/07 02:10:41;;;;;;;0.30;0.30;;;-1.30;99.90;;;;;;5114514;28;20418;-87
2022/01/07 02:13:07;;;;;;;0.30;0.30;;;-1.30;99.90;;;;;;5114229;28;20478;-87
2022/01/07 02:15:37;;;;;;;0.30;0.20;;;-1.30;99.90;;;;;;5114157;28;20424;-86
2022/01/07 02:18:04;;;;;;;2.43;1.17;;;-1.30;99.90;;;;;;5114331;28;20438;-86
2022/01/07 02:20:32;;;;;;;0.30;0.30;;;-1.40;99.90;;;;;;5114199;28;20446;-86
2022/01/07 02:22:59;;;;;;;0.30;0.30;;;-1.40;99.90;;;;;;5114114;28;20467;-87
2022/01/07 02:25:27;;;;;;;0.30;0.30;;;-1.40;99.90;;;;;;5114296;28;20922;-86
2022/01/07 02:27:55;;;;;;;0.30;0.30;;;-1.40;99.90;;;;;;5114194;28;21001;-86
2022/01/07 02:30:24;;;;;;;0.73;0.73;;;-1.40;99.90;;;;;;5114164;28;20446;-86
2022/01/07 02:32:52;;;;;;;0.47;0.47;;;-1.40;99.90;;;;;;5114235;28;20455;-87
2022/01/07 02:35:23;;;;;;;0.30;0.30;;;-1.30;99.90;;;;;;5114327;28;20417;-87
2022/01/07 02:37:51;;;;;;;0.63;0.63;;;-1.30;99.90;;;;;;5113947;28;20487;-87
2022/01/07 02:40:18;;;;;;;0.30;0.30;;;-1.30;99.90;;;;;;5113871;28;20928;-87
2022/01/07 02:42:45;;;;;;;0.30;0.30;;;-1.30;99.90;;;;;;5114061;28;20474;-86
2022/01/07 02:45:13;;;;;;;0.93;0.93;;;-1.30;99.90;;;;;;5113876;28;20429;-86
2022/01/07 02:47:49;;;;;;;0.30;0.30;;;-1.30;99.90;;;;;;5114043;28;20828;-87
2022/01/07 02:50:17;;;;;;;0.30;0.30;;;-1.30;99.90;;;;;;5114215;28;20783;-86
2022/01/07 02:52:44;;;;;;;0.30;0.30;;;-1.30;99.90;;;;;;5113706;28;20984;-86
2022/01/07 02:55:13;;;;;;;0.30;0.30;;;-1.30;99.90;;;;;;5117752;28;20447;-86
2022/01/07 02:57:40;;;;;;;0.30;0.30;;;-1.30;99.90;;;;;;5119008;28;20446;-86
2022/01/07 03:00:10;;;;;;;0.30;0.20;;;-1.40;99.90;;;;;;5122550;28;20447;-87
2022/01/07 03:02:37;;;;;;;0.30;0.30;;;-1.40;99.90;;;;;;5119892;28;20806;-86
2022/01/07 03:05:05;;;;;;;1.13;1.03;;;-1.40;99.90;;;;;;5117762;28;20814;-86
2022/01/07 03:07:33;;;;;;;0.30;0.30;;;-1.40;99.90;;;;;;5117595;28;20457;-86
2022/01/07 03:10:00;;;;;;;3.20;0.70;;;-1.40;99.90;;;;;;5118276;27;20798;-86
2022/01/07 03:12:28;;;;;;;0.30;0.30;;;-1.40;99.90;;;;;;5117400;28;20453;-86
2022/01/07 03:14:56;;;;;;;0.83;0.83;;;-1.40;99.90;;;;;;5117194;28;20973;-86
2022/01/07 03:17:22;;;;;;;0.30;0.30;;;-1.40;99.90;;;;;;5117062;28;20484;-87
2022/01/07 03:19:49;;;;;;;0.30;0.30;;;-1.40;99.90;;;;;;5117404;28;20447;-86
2022/01/07 03:22:16;;;;;;;0.30;0.30;;;-1.40;99.90;;;;;;5117017;28;20930;-86
2022/01/07 03:24:43;;;;;;;0.30;0.30;;;-1.40;99.90;;;;;;5117386;28;20434;-86
2022/01/07 03:27:09;;;;;;;0.60;0.60;;;-1.50;99.90;;;;;;5117388;28;20426;-86
2022/01/07 03:29:37;;;;;;;0.60;0.60;;;-1.50;99.90;;;;;;5117401;28;20439;-86
2022/01/07 03:32:05;;;;;;;0.30;0.30;;;-1.60;99.90;;;;;;5117160;28;20478;-86
2022/01/07 03:34:32;;;;;;;0.30;0.30;;;-1.60;99.90;;;;;;5117030;28;20532;-87
2022/01/07 03:36:58;;;;;;;0.30;0.30;;;-1.60;99.90;;;;;;5117215;28;20422;-86
2022/01/07 03:39:25;;;;;;;0.70;0.40;;;-1.60;99.90;;;;;;5117166;28;20443;-86
2022/01/07 03:41:52;;;;;;;0.77;0.77;;;-1.60;99.90;;;;;;5117133;28;20428;-84
2022/01/07 03:44:19;;;;;;;0.30;0.30;;;-1.60;99.90;;;;;;5116797;28;20490;-85
2022/01/07 03:46:47;;;;;;;0.30;0.30;;;-1.60;99.90;;;;;;5117882;28;20432;-84
2022/01/07 03:49:14;;;;;;;0.30;0.30;;;-1.70;99.90;;;;;;5118376;28;20457;-85
2022/01/07 03:51:42;;;;;;;0.30;0.30;;;-1.70;99.90;;;;;;5116797;28;20446;-85
2022/01/07 03:54:09;;;;;;;0.30;0.30;;;-1.80;99.90;;;;;;5116446;28;21005;-84
2022/01/07 03:56:36;;;;;;;0.40;0.40;;;-1.70;99.90;;;;;;5116766;28;20418;-84
2022/01/07 03:59:03;;;;;;;0.30;0.30;;;-1.80;99.90;;;;;;5116760;28;20957;-84
2022/01/07 04:01:30;;;;;;;0.30;0.30;;;-1.80;99.90;;;;;;5116609;28;20768;-85
2022/01/07 04:03:58;;;;;;;0.30;0.20;;;-1.80;99.90;;;;;;5116333;28;20966;-85
2022/01/07 04:06:25;;;;;;;0.30;0.30;;;-1.90;99.90;;;;;;5116568;28;20923;-86
2022/01/07 04:08:52;;;;;;;0.90;0.90;;;-1.80;99.90;;;;;;5116467;28;20478;-86
2022/01/07 04:11:19;;;;;;;0.30;0.30;;;-1.80;99.90;;;;;;5116439;28;20814;-85
2022/01/07 04:13:47;;;;;;;0.30;0.30;;;-1.80;99.90;;;;;;5116057;28;20451;-86
2022/01/07 04:16:14;;;;;;;0.53;0.53;;;-1.80;99.90;;;;;;5116100;28;20464;-86
2022/01/07 04:18:41;;;;;;;0.30;0.30;;;-1.90;99.90;;;;;;5116511;28;20938;-86
2022/01/07 04:21:09;;;;;;;0.40;0.40;;;-1.80;99.90;;;;;;5116327;28;20420;-86
2022/01/07 04:23:36;;;;;;;0.30;0.30;;;-1.80;99.90;;;;;;5116102;28;20442;-86
2022/01/07 04:26:03;;;;;;;3.33;0.70;;;-1.90;99.90;;;;;;5115745;28;20413;-86
2022/01/07 04:28:30;;;;;;;0.30;0.30;;;-1.80;99.90;;;;;;5115720;28;20460;-86
2022/01/07 04:30:57;;;;;;;0.97;0.63;;;-1.80;99.90;;;;;;5116682;28;20458;-86
2022/01/07 04:33:27;;;;;;;0.30;0.30;;;-1.90;99.90;;;;;;5116008;28;20956;-86
2022/01/07 04:35:55;;;;;;;0.30;0.30;;;-1.90;99.90;;;;;;5115930;28;20492;-86
2022/01/07 04:38:23;;;;;;;0.30;0.30;;;-1.90;99.90;;;;;;5116009;28;20896;-86
2022/01/07 04:40:51;;;;;;;0.30;0.30;;;-1.90;99.90;;;;;;5115879;28;20425;-86
2022/01/07 04:43:17;;;;;;;0.30;0.30;;;-1.90;99.90;;;;;;5115764;28;20455;-86
2022/01/07 04:45:45;;;;;;;0.30;0.30;;;-1.90;99.90;;;;;;5115745;28;20446;-86
2022/01/07 04:48:12;;;;;;;3.03;0.93;;;-1.80;99.90;;;;;;5116205;28;20558;-85
2022/01/07 04:50:39;;;;;;;0.30;0.30;;;-1.80;99.90;;;;;;5116518;28;20934;-86
2022/01/07 04:53:07;;;;;;;0.30;0.30;;;-1.90;99.90;;;;;;5116323;28;20495;-86
2022/01/07 04:55:37;;;;;;;2.23;1.73;;;-1.90;99.90;;;;;;5117147;28;20445;-86
2022/01/07 04:58:08;;;;;;;0.40;0.40;;;-1.90;99.90;;;;;;5115664;28;20489;-86
2022/01/07 05:00:36;;;;;;;0.40;0.40;;;-1.90;99.90;;;;;;5115251;28;20901;-85
2022/01/07 05:03:03;;;;;;;0.30;0.30;;;-1.90;99.90;;;;;;5115460;28;20437;-86
2022/01/07 05:05:30;;;;;;;0.30;0.30;;;-1.80;99.90;;;;;;5115338;28;20455;-86
2022/01/07 05:07:57;;;;;;;1.13;1.13;;;-1.80;99.90;;;;;;5115194;28;20447;-85
2022/01/07 05:10:24;;;;;;;0.30;0.30;;;-1.70;99.90;;;;;;5115274;28;20443;-86
2022/01/07 05:12:52;;;;;;;0.30;0.30;;;-1.70;99.90;;;;;;5114831;28;20426;-86
2022/01/07 05:15:23;;;;;;;0.30;0.30;;;-1.60;99.90;;;;;;5114938;27;20789;-85
2022/01/07 05:17:50;;;;;;;0.30;0.30;;;-1.60;99.90;;;;;;5114676;28;20518;-85
2022/01/07 05:20:17;;;;;;;0.30;0.30;;;-1.60;99.90;;;;;;5115168;28;20447;-86
2022/01/07 05:22:45;;;;;;;0.30;0.20;;;-1.60;99.90;;;;;;5114954;28;20437;-85
2022/01/07 05:25:13;;;;;;;0.60;0.60;;;-1.60;99.90;;;;;;5114947;28;20443;-85
2022/01/07 05:27:40;;;;;;;0.30;0.30;;;-1.60;99.90;;;;;;5114804;28;20413;-85
2022/01/07 05:30:10;;;;;;;0.30;0.20;;;-1.60;99.90;;;;;;5114852;28;20475;-85
2022/01/07 05:32:37;;;;;;;0.30;0.30;;;-1.60;99.90;;;;;;5114672;28;20460;-85
2022/01/07 05:35:06;;;;;;;3.03;1.33;;;-1.50;99.90;;;;;;5114713;28;20813;-85
2022/01/07 05:37:32;;;;;;;0.30;0.30;;;-1.60;99.90;;;;;;5114721;28;20812;-85
2022/01/07 05:39:59;;;;;;;0.30;0.20;;;-1.50;99.90;;;;;;5114611;28;20414;-85
2022/01/07 05:42:26;;;;;;;0.30;0.30;;;-1.50;99.90;;;;;;5114535;28;20449;-85
2022/01/07 05:44:55;;;;;;;0.30;0.20;;;-1.50;99.90;;;;;;5114505;28;20425;-85
2022/01/07 05:47:23;;;;;;;0.30;0.30;;;-1.50;99.90;;;;;;5115037;28;20812;-85
2022/01/07 05:49:50;;;;;;;0.30;0.30;;;-1.50;99.90;;;;;;5114398;28;20463;-85
2022/01/07 05:52:16;;;;;;;0.83;0.80;;;-1.40;99.90;;;;;;5114336;28;20443;-85
2022/01/07 05:54:43;;;;;;;0.60;0.60;;;-1.40;99.90;;;;;;5114144;28;20442;-85
2022/01/07 05:57:10;;;;;;;0.40;0.40;;;-1.40;99.90;;;;;;5114912;28;20430;-85
2022/01/07 05:59:36;;;;;;;0.30;0.30;;;-1.40;99.90;;;;;;5119338;28;20941;-84
2022/01/07 06:02:04;;;;;;;0.30;0.30;;;-1.40;99.90;;;;;;5115536;28;20424;-85
2022/01/07 06:04:32;;;;;;;0.30;0.30;;;-1.40;99.90;;;;;;5114121;28;20489;-85
2022/01/07 06:06:58;;;;;;;0.50;0.50;;;-1.30;99.90;;;;;;5114030;28;20450;-85
2022/01/07 06:09:25;;;;;;;0.40;0.40;;;-1.30;99.90;;;;;;5114143;28;20456;-85
2022/01/07 06:11:52;;;;;;;0.40;0.40;;;-1.30;99.90;;;;;;5115109;28;20418;-85
2022/01/07 06:14:18;;;;;;;0.30;0.30;;;-1.30;99.90;;;;;;5113785;28;20466;-85
2022/01/07 06:16:45;;;;;;;0.30;0.30;;;-1.30;99.90;;;;;;5113492;28;20475;-81
2022/01/07 06:19:12;;;;;;;0.30;0.30;;;-1.30;99.90;;;;;;5113804;28;20451;-81
2022/01/07 06:21:40;;;;;;;1.00;0.97;;;-1.30;99.90;;;;;;5113493;28;20413;-81
2022/01/07 06:24:07;;;;;;;0.60;0.60;;;-1.20;99.90;;;;;;5113428;28;20449;-81
2022/01/07 06:26:34;;;;;;;0.30;0.30;;;-1.30;99.90;;;;;;5113648;28;20952;-85
2022/01/07 06:29:01;;;;;;;1.13;1.13;;;-1.20;99.90;;;;;;5115781;28;20804;-85
2022/01/07 06:31:28;;;;;;;0.30;0.30;;;-1.20;99.90;;;;;;5118263;28;20949;-85
2022/01/07 06:33:55;;;;;;;0.30;0.30;;;-1.20;99.90;;;;;;5118072;28;20482;-85
2022/01/07 06:36:21;;;;;;;0.30;0.30;;;-1.20;99.90;;;;;;5117819;28;20959;-83
2022/01/07 06:38:49;;;;;;;0.30;0.30;;;-1.20;99.90;;;;;;5117876;28;20454;-84
2022/01/07 06:41:16;;;;;;;0.40;0.40;;;-1.30;99.90;;;;;;5118077;28;20461;-85
2022/01/07 06:43:43;;;;;;;0.30;0.30;;;-1.30;99.90;;;;;;5117965;27;20807;-85
2022/01/07 06:46:11;;;;;;;0.30;0.30;;;-1.30;99.90;;;;;;5117903;28;20810;-85
2022/01/07 06:48:38;;;;;;;0.30;0.30;;;-1.30;99.90;;;;;;5117847;28;20485;-85
2022/01/07 06:51:05;;;;;;;0.90;0.70;;;-1.30;99.90;;;;;;5117650;28;20896;-82
2022/01/07 06:53:31;;;;;;;0.30;0.30;;;-1.30;99.90;;;;;;5117451;28;20466;-83
2022/01/07 06:56:00;;;;;;;0.30;0.30;;;-1.20;99.90;;;;;;5117524;27;20429;-82
2022/01/07 06:58:27;;;;;;;0.30;0.30;;;-1.20;99.90;;;;;;5117465;28;20621;-82
2022/01/07 07:00:54;;;;;;;0.30;0.30;;;-1.20;99.90;;;;;;5117120;28;20438;-83
2022/01/07 07:03:21;;;;;;;0.30;0.30;;;-1.20;99.90;;;;;;5117268;28;20466;-83
2022/01/07 07:05:49;;;;;;;0.73;0.73;;;-1.20;99.90;;;;;;5117230;28;20455;-82
2022/01/07 07:08:16;;;;;;;0.30;0.30;;;-1.20;99.90;;;;;;5117089;28;20934;-84
2022/01/07 07:10:42;;;;;;;0.30;0.30;;;-1.10;99.90;;;;;;5117533;28;20444;-85
2022/01/07 07:13:11;;;;;;;0.30;0.30;;;-1.20;99.90;;;;;;5117080;28;20971;-85
2022/01/07 07:15:37;;;;;;;0.40;0.40;;;-1.20;99.90;;;;;;5116908;28;20449;-81
2022/01/07 07:18:04;;;;;;;0.40;0.40;;;-1.20;99.90;;;;;;5117196;28;20405;-85
2022/01/07 07:20:31;;;;;;;0.30;0.30;;;-1.20;99.90;;;;;;5117100;28;20509;-85
2022/01/07 07:22:58;;;;;;;0.30;0.30;;;-1.20;99.90;;;;;;5117166;28;20466;-85
2022/01/07 07:25:25;;;;;;;0.30;0.30;;;-1.20;99.90;;;;;;5117093;28;20425;-84
2022/01/07 07:27:52;;;;;;;0.30;0.30;;;-1.20;99.90;;;;;;5116763;28;20972;-85
2022/01/07 07:30:20;;;;;;;0.30;0.30;;;-1.20;99.90;;;;;;5117050;28;20460;-81
2022/01/07 07:32:48;;;;;;;0.50;0.50;;;-1.20;99.90;;;;;;5116720;27;20463;-81
2022/01/07 07:37:55;;;;;;;0.30;0.30;;;-1.20;99.90;;;;;;5093628;28;20506;-81
2022/01/07 07:40:22;;;;;;;0.30;0.30;;;-1.10;99.90;;;;;;5116152;28;20450;-84
2022/01/07 07:42:49;;;;;;;0.30;0.23;;;-1.00;99.90;;;;;;5116777;28;20455;-84
2022/01/07 07:45:16;;;;;;;0.30;0.30;;;-1.00;99.90;;;;;;5116723;28;20950;-84
2022/01/07 07:47:44;;;;;;;0.30;0.30;;;-0.90;99.90;;;;;;5116698;28;20439;-84
2022/01/07 07:50:10;;;;;;;0.30;0.30;;;-0.90;99.90;;;;;;5116576;28;20478;-85
2022/01/07 07:52:37;;;;;;;0.30;0.30;;;-0.90;99.90;;;;;;5116340;28;20471;-84
2022/01/07 07:55:05;;;;;;;0.37;0.37;;;-0.90;99.90;;;;;;5116549;28;20421;-84
2022/01/07 07:57:32;;;;;;;2.13;0.70;;;-0.90;99.90;;;;;;5117326;28;20421;-83
2022/01/07 07:59:59;;;;;;;0.30;0.30;;;-0.90;99.90;;;;;;5117407;28;20467;-84
2022/01/07 08:02:25;;;;;;;0.30;0.20;;;-0.80;99.90;;;;;;5116349;28;20441;-83
2022/01/07 08:04:53;;;;;;;0.30;0.30;;;-0.70;99.90;;;;;;5116390;27;20427;-83
2022/01/07 08:07:20;;;;;;;0.30;0.30;;;-0.80;99.90;;;;;;5116357;27;20428;-83
2022/01/07 08:09:49;;;;;;;0.30;0.30;;;-0.70;99.90;;;;;;5115864;28;20883;-83
2022/01/07 08:12:20;;;;;;;0.33;0.33;;;-0.70;99.90;;;;;;5116338;28;20437;-83
2022/01/07 08:17:32;;;;;;;0.30;0.30;;;-0.60;99.90;;;;;;5115827;28;20940;-83
2022/01/07 08:20:00;;;;;;;0.30;0.30;;;-0.50;99.90;;;;;;5115738;28;20434;-83
2022/01/07 08:22:27;;;;;;;0.37;0.37;;;-0.40;99.90;;;;;;5116154;28;20438;-84
2022/01/07 08:24:54;;;;;;;0.30;0.30;;;-0.40;99.90;;;;;;5115773;28;20984;-84
2022/01/07 08:27:22;;;;;;;0.30;0.30;;;-0.30;99.90;;;;;;5115735;28;20427;-84
2022/01/07 08:29:49;;;;;;;0.30;0.30;;;-0.30;99.90;;;;;;5116010;28;20516;-84
2022/01/07 08:35:04;;;;;;;0.30;0.30;;;-0.20;99.90;;;;;;5116038;28;20411;-83
2022/01/07 08:37:31;;;;;;;0.30;0.30;;;-0.20;99.90;;;;;;5115921;28;20530;-83
2022/01/07 08:39:58;;;;;;;0.30;0.27;;;-0.10;99.90;;;;;;5115531;27;20447;-83
2022/01/07 08:42:26;;;;;;;0.30;0.30;;;-0.10;99.90;;;;;;5115445;28;20422;-83
2022/01/07 08:44:54;;;;;;;0.93;0.93;;;-0.10;99.90;;;;;;5115390;28;20453;-84
2022/01/07 08:47:23;;;;;;;0.40;0.40;;;-0.10;99.90;;;;;;5115469;28;20462;-84
2022/01/07 08:49:50;;;;;;;0.30;0.30;;;-0.10;99.90;;;;;;5115281;27;20580;-84
2022/01/07 08:52:19;;;;;;;0.40;0.40;;;-0.10;99.90;;;;;;5114373;28;20445;-84
2022/01/07 08:54:47;;;;;;;0.30;0.30;;;-0.10;99.90;;;;;;5115279;28;20512;-84
2022/01/07 08:57:13;;;;;;;0.30;0.30;;;0.00;99.90;;;;;;5115207;28;20883;-83
2022/01/07 08:59:40;;;;;;;0.30;0.30;;;0.10;99.90;;;;;;5115314;28;20410;-84
2022/01/07 09:02:08;;;;;;;0.30;0.30;;;0.00;99.90;;;;;;5115118;28;20449;-84
2022/01/07 09:04:34;;;;;;;0.30;0.30;;;0.10;99.90;;;;;;5114687;28;20966;-83
2022/01/07 09:07:01;;;;;;;0.30;0.30;;;0.20;99.90;;;;;;5114689;28;20447;-83
2022/01/07 09:09:29;;;;;;;0.30;0.30;;;0.20;99.90;;;;;;5114899;28;20483;-84
2022/01/07 09:11:56;;;;;;;0.30;0.30;;;0.20;99.90;;;;;;5115282;28;20939;-83
2022/01/07 09:14:23;;;;;;;0.30;0.30;;;0.40;99.90;;;;;;5114797;28;20474;-83
2022/01/07 09:16:49;;;;;;;0.40;0.40;;;0.40;99.90;;;;;;5114632;28;20992;-84
2022/01/07 09:19:16;;;;;;;0.30;0.30;;;0.40;99.90;;;;;;5114775;28;20414;-84
2022/01/07 09:21:43;;;;;;;0.30;0.30;;;0.40;99.90;;;;;;5114929;28;20439;-84
2022/01/07 09:24:10;;;;;;;0.47;0.47;;;0.50;99.90;;;;;;5114657;28;20471;-83
2022/01/07 09:26:38;;;;;;;0.30;0.30;;;0.40;99.90;;;;;;5114724;28;20450;-84
2022/01/07 09:29:04;;;;;;;0.33;0.33;;;0.40;99.90;;;;;;5114591;28;20443;-84
2022/01/07 09:31:33;;;;;;;0.70;0.70;;;0.50;99.90;;;;;;5114559;28;20454;-83
2022/01/07 09:34:00;;;;;;;0.30;0.30;;;0.50;99.90;;;;;;5114389;28;20463;-83
2022/01/07 09:36:27;;;;;;;0.30;0.30;;;0.50;99.90;;;;;;5114383;28;20433;-84
2022/01/07 09:38:54;;;;;;;0.30;0.30;;;0.50;99.90;;;;;;5114389;27;20422;-84
2022/01/07 09:41:20;;;;;;;0.40;0.40;;;0.60;99.90;;;;;;5114378;28;20435;-84
2022/01/07 09:43:48;;;;;;;0.30;0.30;;;0.60;99.90;;;;;;5113983;28;20425;-84
2022/01/07 09:46:16;;;;;;;0.30;0.30;;;0.50;99.90;;;;;;5114057;28;20930;-83
2022/01/07 09:48:43;;;;;;;0.60;0.60;;;0.50;99.90;;;;;;5114216;28;20427;-83
2022/01/07 09:51:10;;;;;;;0.40;0.40;;;0.60;99.90;;;;;;5114447;28;20441;-83
2022/01/07 09:53:37;;;;;;;0.70;0.70;;;0.70;99.90;;;;;;5114328;28;20463;-84
2022/01/07 09:56:04;;;;;;;0.30;0.30;;;0.70;99.90;;;;;;5114253;28;20438;-84
2022/01/07 09:58:33;;;;;;;0.30;0.30;;;0.80;99.90;;;;;;5114297;28;20455;-84
2022/01/07 10:01:05;;;;;;;0.50;0.50;;;0.80;99.90;;;;;;5113846;28;20414;-84
2022/01/07 10:03:40;;;;;;;0.30;0.30;;;0.80;99.90;;;;;;5113443;28;20466;-79
2022/01/07 10:06:18;;;;;;;0.30;0.30;;;0.80;99.90;;;;;;5113668;28;20793;-79
2022/01/07 10:08:46;;;;;;;0.30;0.20;;;0.80;99.90;;;;;;5113652;28;20460;-79
2022/01/07 10:11:16;;;;;;;0.30;0.30;;;0.80;99.90;;;;;;5113826;28;20475;-79
2022/01/07 10:13:44;;;;;;;0.30;0.30;;;0.80;99.90;;;;;;5113893;28;20463;-79
2022/01/07 10:16:18;;;;;;;0.30;0.30;;;0.70;99.90;;;;;;5113629;28;20490;-79
2022/01/07 10:18:47;;;;;;;0.30;0.30;;;0.70;99.90;;;;;;5113612;28;20902;-79
2022/01/07 10:21:15;;;;;;;0.30;0.30;;;0.70;99.90;;;;;;5113862;28;20467;-79
2022/01/07 10:23:42;;;;;;;0.30;0.30;;;0.80;99.90;;;;;;5113623;28;20467;-81
2022/01/07 10:26:15;;;;;;;0.30;0.30;;;0.80;99.90;;;;;;5113776;28;20447;-82
2022/01/07 10:28:43;;;;;;;0.30;0.30;;;0.80;99.90;;;;;;5113517;28;20480;-83
2022/01/07 10:31:11;;;;;;;0.30;0.30;;;0.80;99.90;;;;;;5113679;28;20490;-82
2022/01/07 10:33:40;;;;;;;0.53;0.53;;;0.80;99.90;;;;;;5113699;28;20462;-82
2022/01/07 10:36:20;;;;;;;0.90;0.50;;;0.90;99.90;;;;;;5113734;28;20758;-82
2022/01/07 10:38:49;;;;;;;0.30;0.30;;;0.90;99.90;;;;;;5113704;28;20431;-82
2022/01/07 10:41:16;;;;;;;0.30;0.30;;;0.90;99.90;;;;;;5113432;28;20463;-82
2022/01/07 10:43:43;;;;;;;0.30;0.30;;;0.90;99.90;;;;;;5113591;28;20553;-80
2022/01/07 10:46:16;;;;;;;0.50;0.50;;;0.80;99.90;;;;;;5113294;28;20473;-80
2022/01/07 10:48:49;;;;;;;0.50;0.50;;;0.80;99.90;;;;;;5113543;28;20428;-80
2022/01/07 10:51:19;;;;;;;1.17;0.87;;;0.80;99.90;;;;;;5114213;28;20463;-80
2022/01/07 10:53:49;;;;;;;0.30;0.30;;;0.80;99.90;;;;;;5113145;28;20444;-81
2022/01/07 10:56:17;;;;;;;0.50;0.50;;;0.80;99.90;;;;;;5113189;28;20972;-82
2022/01/07 10:58:56;;;;;;;0.30;0.30;;;0.80;99.90;;;;;;5113458;28;20521;-81
2022/01/07 11:01:37;;;;;;;0.30;0.20;;;0.80;99.90;;;;;;5113212;28;20941;-81
2022/01/07 11:04:07;;;;;;;0.77;0.77;;;0.70;99.90;;;;;;5113685;28;20471;-81
2022/01/07 11:06:34;;;;;;;0.30;0.30;;;0.80;99.90;;;;;;5113445;28;20435;-81
2022/01/07 11:09:03;;;;;;;0.40;0.40;;;0.80;99.90;;;;;;5114265;28;20431;-81
2022/01/07 11:11:31;;;;;;;0.30;0.30;;;0.80;99.90;;;;;;5112991;28;20984;-80
2022/01/07 11:14:07;;;;;;;0.87;0.73;;;0.90;99.90;;;;;;5113417;28;20463;-80
2022/01/07 11:16:38;;;;;;;0.30;0.30;;;0.90;99.90;;;;;;5116880;28;20478;-80
2022/01/07 11:19:08;;;;;;;0.30;0.30;;;0.90;99.90;;;;;;5117106;28;20467;-81
2022/01/07 11:21:36;;;;;;;0.30;0.30;;;0.90;99.90;;;;;;5117283;27;20423;-82
2022/01/07 11:24:38;;;;;;;0.30;0.30;;;1.10;99.90;;;;;;5116906;27;20531;-82
2022/01/07 11:27:07;;;;;;;0.30;0.30;;;1.20;99.90;;;;;;5116638;28;20435;-81
2022/01/07 11:29:37;;;;;;;0.30;0.30;;;1.30;99.90;;;;;;5116898;28;20426;-81
2022/01/07 11:32:44;;;;;;;0.30;0.30;;;1.40;99.90;;;;;;5116790;28;20520;-81
2022/01/07 11:35:46;;;;;;;0.30;0.30;;;1.50;99.90;;;;;;5116444;28;20451;-82
2022/01/07 11:38:35;;;;;;;0.80;0.50;;;1.50;99.90;;;;;;5117002;28;20435;-81
2022/01/07 11:41:03;;;;;;;0.47;0.47;;;1.60;99.90;;;;;;5116714;28;20431;-81
2022/01/07 11:43:37;;;;;;;0.50;0.50;;;1.70;99.90;;;;;;5116509;28;20469;-81
2022/01/07 11:46:25;;;;;;;0.30;0.30;;;1.80;99.90;;;;;;5116300;28;20888;-77
2022/01/07 11:48:54;;;;;;;1.23;0.60;;;1.80;99.90;;;;;;5116701;28;20423;-81
2022/01/07 11:51:22;;;;;;;0.30;0.30;;;2.00;99.90;;;;;;5116481;28;20498;-80
2022/01/07 11:54:03;;;;;;;0.60;0.53;;;2.10;99.90;;;;;;5116072;28;20978;-80
2022/01/07 11:56:32;;;;;;;2.40;1.47;;;2.10;99.90;;;;;;5116325;28;20465;-80
2022/01/07 11:59:11;;;;;;;0.40;0.40;;;2.00;99.90;;;;;;5116372;28;20446;-80
2022/01/07 12:01:40;;;;;;;0.30;0.30;;;2.00;99.90;;;;;;5116582;28;20428;-81
2022/01/07 12:04:26;;;;;;;0.80;0.80;;;2.00;99.90;;;;;;5116231;28;20582;-82
2022/01/07 12:06:55;;;;;;;0.40;0.40;;;1.90;99.90;;;;;;5116172;28;20935;-82
2022/01/07 12:09:29;;;;;;;0.37;0.37;;;1.90;99.90;;;;;;5115856;28;20902;-82
2022/01/07 12:11:59;;;;;;;0.30;0.30;;;1.90;99.90;;;;;;5116039;28;20442;-83
2022/01/07 12:14:29;;;;;;;0.40;0.40;;;1.90;99.90;;;;;;5115931;27;20470;-82
2022/01/07 12:16:58;;;;;;;0.30;0.30;;;1.90;99.90;;;;;;5115703;28;20983;-82
2022/01/07 12:20:01;;;;;;;0.30;0.30;;;1.90;99.90;;;;;;5116429;28;20766;-82
2022/01/07 12:22:29;;;;;;;0.30;0.30;;;1.90;99.90;;;;;;5116063;28;20435;-82
2022/01/07 12:25:00;;;;;;;0.83;0.50;;;1.90;99.90;;;;;;5115829;28;20423;-82
2022/01/07 12:27:27;;;;;;;0.40;0.40;;;1.90;99.90;;;;;;5115789;27;20427;-82
2022/01/07 12:29:56;;;;;;;0.30;0.30;;;2.00;99.90;;;;;;5116200;28;20428;-81
2022/01/07 12:32:30;;;;;;;0.40;0.40;;;2.10;99.90;;;;;;5117997;28;20423;-82
2022/01/07 12:34:57;;;;;;;0.30;0.30;;;2.10;99.90;;;;;;5115635;28;20425;-82
2022/01/07 12:37:26;;;;;;;0.30;0.30;;;2.20;99.90;;;;;;5115583;28;20497;-81
2022/01/07 12:39:56;;;;;;;0.30;0.30;;;2.20;99.90;;;;;;5115514;28;20430;-81
2022/01/07 12:42:24;;;;;;;1.23;0.93;;;2.30;99.90;;;;;;5115477;28;20485;-79
2022/01/07 12:44:54;;;;;;;0.30;0.30;;;2.30;99.90;;;;;;5115402;28;20431;-79
2022/01/07 12:47:24;;;;;;;0.30;0.20;;;2.40;99.90;;;;;;5115192;28;20410;-79
2022/01/07 12:49:53;;;;;;;1.63;0.87;;;2.40;99.90;;;;;;5115533;28;20408;-78
2022/01/07 12:52:21;;;;;;;0.30;0.20;;;2.40;99.90;;;;;;5115061;28;20459;-79
2022/01/07 12:54:55;;;;;;;0.80;0.80;;;2.40;99.90;;;;;;5115513;28;20430;-81
2022/01/07 12:57:27;;;;;;;0.30;0.30;;;2.30;99.90;;;;;;5115219;28;20428;-81
2022/01/07 13:00:16;;;;;;;0.30;0.30;;;2.20;99.90;;;;;;5115156;27;20432;-81
2022/01/07 13:02:44;;;;;;;0.40;0.40;;;2.30;99.90;;;;;;5115029;28;20458;-81
2022/01/07 13:05:20;;;;;;;0.93;0.93;;;2.40;99.90;;;;;;5115052;28;20427;-79